Lorraine, Kansas
Current Conditions -  °F | °C
As of 4:35 AM on Saturday 22 Nov 2014 (Local Time) from KGBD Reporting Station
Overcast Overcast  
Wind Chill: 30°   Ceiling: 200
Heat Index: 36°   Visibility: 0.5mi
Dew Point: 32°   Wind: 7mph
Humidity: 87%   Direction: 210°SSW
Pressure: 29.96"   Gusts: NA
Location:  38.57°N, 98.32°W
Report Text: KGBD 221035Z AUTO 21006KT 1/2SM OVC002 02/00 A2996 RMK AO1
Loading
Personal Weather Stations






























Interactive Weather Map New forecast layout! Learn more

10-Day Weather Forecast

Advertisements
Track Severe Weather on mobile